Sape, Brazil
Current Conditions -  °F | °C
As of 2:00 PM on Thursday 25 Dec 2014 (Local Time) from SBJP Reporting Station
Scattered Clouds Scattered Clouds  
Wind Chill: 86°   Ceiling: Unl
Heat Index: 87°   Visibility: 6mi
Dew Point: 64°   Wind: 13mph
Humidity: 48%   Direction: 110°ESE
Pressure: 29.97"   Gusts: NA
Location:  7.1°S, 35.23°W
Report Text: SBJP 251700Z 11011KT 9999 SCT030 30/18 Q1015
Loading
Personal Weather Stations






























Interactive Weather Map New forecast layout! Learn more

10-Day Weather Forecast

Advertisements
Track Severe Weather on mobile